createdAt,value
2022-09-20T00:04:40.243Z,60.24
2022-09-20T00:09:41.316Z,60.39
2022-09-20T00:14:42.452Z,60.49
2022-09-20T00:19:43.449Z,60.39
2022-09-20T00:24:48.864Z,60.35
2022-09-20T00:29:50.313Z,60.03
2022-09-20T00:35:09.732Z,59.58
2022-09-20T00:40:17.209Z,59.45
2022-09-20T00:45:22.860Z,57.78
2022-09-20T00:50:41.656Z,60.73
2022-09-20T00:55:48.129Z,67.37
2022-09-20T01:00:54.057Z,66.52
2022-09-20T01:05:55.429Z,64.84
2022-09-20T01:10:56.831Z,63.68
2022-09-20T01:15:59.739Z,62.85
2022-09-20T01:21:02.851Z,61.97
2022-09-20T01:26:25.967Z,61.62
2022-09-20T01:31:40.164Z,61.69
2022-09-20T01:37:03.278Z,61.28
2022-09-20T01:42:07.463Z,61.61
2022-09-20T01:47:24.134Z,61.19
2022-09-20T01:52:34.507Z,61.36
2022-09-20T01:57:57.521Z,61.60
2022-09-20T02:03:07.828Z,60.49
2022-09-20T02:08:27.477Z,60.87
2022-09-20T02:13:44.836Z,60.33
2022-09-20T02:19:20.259Z,60.43
2022-09-20T02:25:06.650Z,60.28
2022-09-20T02:30:32.885Z,60.31
2022-09-20T02:36:03.767Z,60.39
2022-09-20T02:41:26.576Z,60.70
2022-09-20T02:46:49.752Z,61.10
2022-09-20T02:52:03.800Z,61.11
2022-09-20T02:57:50.201Z,60.87
2022-09-20T03:03:29.150Z,61.05
2022-09-20T03:08:43.683Z,61.14
2022-09-20T03:14:02.166Z,61.04
2022-09-20T03:19:23.558Z,60.67
2022-09-20T03:24:31.052Z,60.66
2022-09-20T03:29:50.680Z,60.70
2022-09-20T03:34:57.875Z,60.63
2022-09-20T03:40:23.964Z,61.32
2022-09-20T03:45:40.484Z,61.63
2022-09-20T03:51:21.909Z,61.70
2022-09-20T03:56:28.696Z,61.84
2022-09-20T04:01:51.718Z,61.67
2022-09-20T04:07:22.901Z,61.61
2022-09-20T04:12:51.988Z,61.52
2022-09-20T04:18:22.943Z,61.94
2022-09-20T04:23:40.843Z,61.58
2022-09-20T04:28:54.481Z,61.29
2022-09-20T04:33:58.841Z,61.29
2022-09-20T04:39:30.305Z,61.41
2022-09-20T04:44:45.236Z,61.46
2022-09-20T04:50:07.017Z,61.26
2022-09-20T04:55:34.430Z,60.86
2022-09-20T05:01:17.966Z,60.32
2022-09-20T05:06:56.600Z,60.31
2022-09-20T05:12:33.679Z,60.24
2022-09-20T05:18:00.065Z,60.95
2022-09-20T05:23:20.332Z,60.59
2022-09-20T05:28:41.753Z,60.52
2022-09-20T05:34:15.759Z,59.98
2022-09-20T05:39:44.884Z,58.12
2022-09-20T05:45:04.781Z,58.68
2022-09-20T05:50:17.945Z,65.62
2022-09-20T05:55:31.194Z,65.25
2022-09-20T06:00:41.086Z,62.17
2022-09-20T06:06:04.115Z,61.25
2022-09-20T06:11:28.651Z,60.53
2022-09-20T06:16:48.683Z,59.75
2022-09-20T06:21:53.572Z,57.17
2022-09-20T06:26:58.915Z,59.79
2022-09-20T06:32:00.576Z,65.60
2022-09-20T06:37:32.017Z,63.92
2022-09-20T06:42:33.122Z,61.24
2022-09-20T06:47:38.112Z,58.14
2022-09-20T06:52:42.119Z,58.84
2022-09-20T06:57:43.623Z,64.11
2022-09-20T07:02:45.893Z,64.07
2022-09-20T07:07:47.426Z,61.71
2022-09-20T07:12:49.028Z,60.55
2022-09-20T07:17:51.191Z,59.16
2022-09-20T07:22:52.959Z,57.88
2022-09-20T07:27:54.166Z,63.05
2022-09-20T07:32:55.318Z,61.03
2022-09-20T07:37:57.642Z,56.61
2022-09-20T07:42:58.878Z,58.20
2022-09-20T07:48:04.443Z,60.50
2022-09-20T07:53:05.806Z,57.16
2022-09-20T07:58:06.944Z,58.37
2022-09-20T08:03:08.378Z,62.30
2022-09-20T08:08:10.929Z,56.34
2022-09-20T08:18:34.820Z,58.52
2022-09-20T08:23:37.997Z,62.34
2022-09-20T08:28:40.232Z,58.64
2022-09-20T08:33:42.486Z,55.22
2022-09-20T08:44:16.284Z,57.64
2022-09-20T08:49:36.930Z,60.99
2022-09-20T08:54:40.883Z,56.06
2022-09-20T08:59:42.890Z,56.46
2022-09-20T09:04:45.472Z,58.22
2022-09-20T09:09:49.716Z,59.26
2022-09-20T09:14:57.434Z,59.25
2022-09-20T09:20:23.595Z,60.27
2022-09-20T09:25:31.463Z,58.35
2022-09-20T09:30:35.505Z,59.38
2022-09-20T09:35:36.760Z,60.16
2022-09-20T09:40:50.058Z,59.86
2022-09-20T09:45:51.252Z,59.38
2022-09-20T09:51:14.589Z,59.08
2022-09-20T09:56:22.932Z,59.05
2022-09-20T10:02:00.107Z,60.13
2022-09-20T10:07:34.843Z,61.92
2022-09-20T10:12:44.965Z,54.65
2022-09-20T10:17:52.068Z,54.72
2022-09-20T10:23:51.562Z,55.71
2022-09-20T10:29:10.511Z,56.42
2022-09-20T10:34:21.110Z,57.42
2022-09-20T10:39:26.173Z,57.84
2022-09-20T10:44:43.218Z,58.96
2022-09-20T10:50:07.055Z,59.29
2022-09-20T10:55:21.305Z,61.35
2022-09-20T11:01:01.699Z,65.43
2022-09-20T11:06:21.579Z,62.51
2022-09-20T11:11:41.087Z,56.70
2022-09-20T11:16:50.342Z,55.43
2022-09-20T11:22:12.514Z,57.62
2022-09-20T11:27:24.493Z,59.18
2022-09-20T11:32:48.760Z,59.63
2022-09-20T11:38:18.034Z,63.37
2022-09-20T11:43:21.730Z,62.09
2022-09-20T11:48:35.743Z,57.74
2022-09-20T11:54:15.389Z,57.33
2022-09-20T11:59:39.659Z,59.03
2022-09-20T12:04:45.150Z,60.51
2022-09-20T12:09:55.832Z,61.19
2022-09-20T12:14:58.628Z,65.43
2022-09-20T12:20:00.364Z,62.45
2022-09-20T12:25:39.303Z,55.59
2022-09-20T12:30:40.477Z,56.21
2022-09-20T12:36:13.456Z,58.41
2022-09-20T12:41:27.612Z,59.90
2022-09-20T12:47:07.717Z,64.34
2022-09-20T12:52:49.000Z,62.47
2022-09-20T12:57:57.748Z,56.06
2022-09-20T13:03:01.711Z,56.25
2022-09-20T13:08:17.116Z,56.81
2022-09-20T13:13:31.271Z,57.56
2022-09-20T13:18:35.417Z,58.60
2022-09-20T13:23:49.229Z,59.78
2022-09-20T13:28:53.892Z,60.82
2022-09-20T13:34:12.028Z,61.36
2022-09-20T13:39:25.445Z,65.32
2022-09-20T13:44:27.133Z,60.47
2022-09-20T13:49:31.544Z,54.99
2022-09-20T13:54:33.118Z,54.88
2022-09-20T13:59:44.567Z,55.50
2022-09-20T14:04:46.331Z,57.65
2022-09-20T14:09:47.443Z,59.02
2022-09-20T14:14:50.475Z,61.08
2022-09-20T14:19:54.107Z,64.98
2022-09-20T14:24:58.709Z,64.68
2022-09-20T14:29:59.895Z,61.96
2022-09-20T14:35:04.308Z,58.02
2022-09-20T14:40:23.547Z,57.84
2022-09-20T14:45:33.788Z,59.90
2022-09-20T14:50:38.483Z,65.26
2022-09-20T14:56:01.074Z,62.54
2022-09-20T15:01:23.605Z,56.86
2022-09-20T15:06:25.059Z,57.57
2022-09-20T15:11:28.578Z,59.44
2022-09-20T15:16:30.149Z,60.80
2022-09-20T15:21:31.484Z,65.77
2022-09-20T15:26:33.728Z,65.35
2022-09-20T15:31:34.860Z,62.47
2022-09-20T15:36:36.021Z,56.84
2022-09-20T15:41:37.840Z,57.47
2022-09-20T15:46:40.918Z,59.86
2022-09-20T15:51:42.174Z,65.83
2022-09-20T15:56:43.580Z,64.87
2022-09-20T16:01:48.337Z,63.47
2022-09-20T16:06:49.950Z,62.71
2022-09-20T16:11:58.287Z,62.01
2022-09-20T16:16:59.482Z,60.80
2022-09-20T16:22:01.224Z,60.02
2022-09-20T16:27:06.779Z,57.75
2022-09-20T16:32:08.015Z,59.74
2022-09-20T16:37:15.062Z,66.11
2022-09-20T16:42:18.674Z,65.60
2022-09-20T16:47:22.569Z,62.87
2022-09-20T16:52:25.837Z,61.66
2022-09-20T16:57:27.220Z,60.85
2022-09-20T17:02:31.600Z,60.31
2022-09-20T17:07:32.914Z,60.09
2022-09-20T17:12:40.840Z,57.82
2022-09-20T17:17:42.015Z,59.87
2022-09-20T17:22:43.014Z,65.97
2022-09-20T17:27:44.865Z,66.97
2022-09-20T17:32:49.866Z,64.45
2022-09-20T17:37:51.085Z,62.99
2022-09-20T17:42:52.238Z,62.39
2022-09-20T17:47:54.917Z,61.38
2022-09-20T17:52:56.018Z,61.23
2022-09-20T17:57:57.199Z,60.66
2022-09-20T18:03:04.074Z,60.60
2022-09-20T18:08:06.067Z,60.37
2022-09-20T18:13:07.270Z,60.04
2022-09-20T18:18:09.572Z,59.90
2022-09-20T18:23:10.925Z,60.33
2022-09-20T18:28:13.369Z,60.71
2022-09-20T18:33:17.266Z,60.96
2022-09-20T18:38:18.387Z,61.49
2022-09-20T18:43:19.431Z,61.91
2022-09-20T18:48:23.998Z,62.16
2022-09-20T18:53:30.107Z,61.75
2022-09-20T18:58:31.558Z,61.67
2022-09-20T19:03:53.162Z,61.79
2022-09-20T19:09:21.948Z,61.71
2022-09-20T19:15:02.096Z,61.82
2022-09-20T19:20:12.941Z,62.20
2022-09-20T19:25:30.074Z,62.28
2022-09-20T19:30:32.483Z,62.09
2022-09-20T19:35:40.162Z,62.28
2022-09-20T19:40:58.863Z,62.24
2022-09-20T19:46:23.355Z,62.08
2022-09-20T19:51:25.420Z,61.97
2022-09-20T19:56:28.902Z,61.77
2022-09-20T20:01:30.586Z,61.49
2022-09-20T20:06:58.307Z,60.47
2022-09-20T20:12:14.043Z,59.89
2022-09-20T20:17:52.750Z,59.52
2022-09-20T20:23:15.846Z,57.55
2022-09-20T20:28:17.001Z,61.38
2022-09-20T20:33:18.705Z,67.85
2022-09-20T20:38:20.823Z,67.30
2022-09-20T20:43:22.038Z,65.60
2022-09-20T20:48:23.472Z,64.35
2022-09-20T20:53:24.605Z,64.06
2022-09-20T20:58:27.848Z,63.14
2022-09-20T21:03:29.901Z,63.12
2022-09-20T21:08:35.579Z,62.89
2022-09-20T21:13:38.701Z,62.99
2022-09-20T21:18:42.446Z,63.20
2022-09-20T21:23:45.749Z,63.59
2022-09-20T21:28:52.252Z,63.70
2022-09-20T21:33:53.432Z,63.63
2022-09-20T21:38:56.363Z,63.33
2022-09-20T21:43:59.604Z,62.88
2022-09-20T21:49:03.635Z,62.84
2022-09-20T21:54:05.146Z,62.93
2022-09-20T21:59:07.108Z,62.84
2022-09-20T22:04:10.895Z,63.05
2022-09-20T22:09:15.174Z,63.11
2022-09-20T22:14:18.679Z,62.84
2022-09-20T22:19:20.114Z,63.24
2022-09-20T22:24:21.142Z,63.51
2022-09-20T22:29:22.319Z,63.49
2022-09-20T22:34:24.588Z,63.09
2022-09-20T22:39:25.725Z,62.86
2022-09-20T22:44:26.748Z,62.75
2022-09-20T22:49:27.878Z,63.05
2022-09-20T22:54:28.976Z,63.11
2022-09-20T22:59:30.251Z,63.13
2022-09-20T23:04:31.315Z,62.86
2022-09-20T23:09:32.470Z,63.19
2022-09-20T23:14:33.522Z,63.08
2022-09-20T23:19:34.735Z,63.17
2022-09-20T23:24:35.917Z,63.17
2022-09-20T23:29:37.248Z,62.95
2022-09-20T23:34:38.246Z,62.77
2022-09-20T23:39:40.793Z,62.92
2022-09-20T23:44:42.061Z,63.26
2022-09-20T23:49:43.202Z,63.26
2022-09-20T23:54:44.229Z,63.40
2022-09-20T23:59:45.319Z,63.35
